Time;durP1;ratioP1;P1;durP2;ratioP2;P2;SDS_P1;SDS_P2;PMS_P1;PMS_P2;Temp;Humidity;BMP_temperature;BMP_pressure;BME280_temperature;BME280_humidity;BME280_pressure;Samples;Min_cycle;Max_cycle;Signal;HPM_P1;HPM_P2
2024/03/02 00:12:17;;;;;;;50.13;29.27;;;7.30;99.90;;;;;;4559655;30;20267;-87
2024/03/02 00:47:46;;;;;;;51.53;29.90;;;7.20;99.90;;;;;;4659642;30;20519;-88
2024/03/02 01:08:35;;;;;;;48.43;27.97;;;7.00;99.90;;;;;;4628655;30;20249;-90
2024/03/02 01:28:57;;;;;;;52.77;29.50;;;6.80;99.90;;;;;;4623756;30;20261;-86
2024/03/02 01:54:19;;;;;;;46.60;29.23;;;6.80;99.90;;;;;;4586854;30;20230;-86
2024/03/02 02:29:08;;;;;;;46.90;28.77;;;6.50;99.90;;;;;;4558515;30;20500;-88
2024/03/02 02:50:10;;;;;;;45.43;28.03;;;6.30;99.90;;;;;;4628834;30;20264;-86
2024/03/02 02:54:29;;;;;;;49.00;28.20;;;6.20;99.90;;;;;;4582321;30;20885;-88
2024/03/02 03:25:06;;;;;;;43.70;26.23;;;6.10;99.90;;;;;;4590400;30;20762;-87
2024/03/02 03:45:38;;;;;;;50.67;27.00;;;5.80;99.90;;;;;;4741819;29;20351;-87
2024/03/02 04:06:09;;;;;;;48.97;27.57;;;5.80;99.90;;;;;;4611986;30;20302;-89
2024/03/02 04:31:33;;;;;;;47.50;26.77;;;5.70;99.90;;;;;;4609042;30;20712;-88
2024/03/02 05:17:14;;;;;;;49.67;27.57;;;5.80;99.90;;;;;;4573837;30;20686;-87
2024/03/02 05:21:34;;;;;;;50.07;26.47;;;5.60;99.90;;;;;;4571327;30;20710;-87
2024/03/02 05:42:31;;;;;;;47.20;26.90;;;5.70;99.90;;;;;;4571373;30;20246;-86
2024/03/02 06:43:23;;;;;;;45.43;24.90;;;6.40;99.90;;;;;;4571179;30;20754;-86
2024/03/02 07:08:47;;;;;;;39.43;22.10;;;6.80;99.90;;;;;;4610621;30;20320;-87
2024/03/02 07:39:07;;;;;;;40.80;21.33;;;7.10;99.90;;;;;;4645168;30;20379;-85
2024/03/02 08:19:43;;;;;;;33.93;19.07;;;7.70;99.90;;;;;;4719255;29;20255;-85
2024/03/02 09:09:46;;;;;;;35.43;19.77;;;8.00;99.90;;;;;;4764770;29;20461;-89
2024/03/02 09:30:25;;;;;;;33.43;19.87;;;8.20;99.90;;;;;;4601864;30;20232;-87
2024/03/02 09:51:05;;;;;;;31.17;20.10;;;8.40;99.90;;;;;;4596287;30;20247;-88
2024/03/02 09:55:27;;;;;;;31.77;19.10;;;8.50;99.90;;;;;;4599205;30;20663;-89
2024/03/02 10:20:48;;;;;;;24.93;15.20;;;9.00;99.90;;;;;;4646572;30;20668;-86
2024/03/02 11:17:10;;;;;;;38.30;22.33;;;10.00;99.90;;;;;;4552976;30;20204;-88
2024/03/02 11:42:33;;;;;;;39.07;24.17;;;10.40;99.90;;;;;;4644422;30;20313;-86
2024/03/02 12:53:29;;;;;;;40.60;27.20;;;10.90;99.90;;;;;;4564054;30;20227;-88
2024/03/02 13:18:47;;;;;;;44.33;28.43;;;10.90;99.90;;;;;;4733625;29;21505;-88
2024/03/02 13:54:23;;;;;;;43.20;27.80;;;10.60;99.90;;;;;;4678308;30;20230;-87
2024/03/02 14:24:37;;;;;;;40.27;26.30;;;9.90;99.90;;;;;;4743387;29;20225;-86
2024/03/02 14:49:48;;;;;;;44.53;28.63;;;9.50;99.90;;;;;;4687759;29;20271;-84
2024/03/02 15:10:30;;;;;;;45.03;29.23;;;9.30;99.90;;;;;;4573216;30;20484;-86
2024/03/02 15:35:46;;;;;;;44.90;29.37;;;9.10;99.90;;;;;;4571584;30;20247;-87
2024/03/02 16:21:32;;;;;;;53.67;32.47;;;8.70;99.90;;;;;;4772499;29;20276;-86
2024/03/02 16:57:01;;;;;;;45.03;30.00;;;8.50;99.90;;;;;;4826604;29;20570;-88
2024/03/02 17:27:22;;;;;;;43.77;28.13;;;8.40;99.90;;;;;;4709777;29;20253;-86
2024/03/02 17:52:10;;;;;;;40.13;27.33;;;8.50;99.90;;;;;;4508696;31;20527;-88
2024/03/02 18:28:15;;;;;;;42.47;27.70;;;8.40;99.90;;;;;;4577099;30;20309;-87
2024/03/02 18:58:11;;;;;;;42.17;27.67;;;8.20;99.90;;;;;;4682322;30;20323;-87
2024/03/02 19:18:48;;;;;;;40.97;25.10;;;8.10;99.90;;;;;;4667997;30;20267;-87
2024/03/02 19:44:26;;;;;;;39.40;24.57;;;8.00;99.90;;;;;;4640451;30;20194;-87
2024/03/02 19:48:46;;;;;;;38.63;25.07;;;7.90;99.90;;;;;;4574258;30;20655;-87
2024/03/02 20:09:28;;;;;;;37.93;24.63;;;7.90;99.90;;;;;;4638395;30;20241;-88
2024/03/02 20:29:58;;;;;;;37.40;24.07;;;7.60;99.90;;;;;;4546503;31;20378;-87
2024/03/02 20:59:46;;;;;;;33.53;22.77;;;7.90;99.90;;;;;;4580110;30;20543;-87
2024/03/02 21:20:06;;;;;;;38.40;23.23;;;7.80;99.90;;;;;;4572276;30;20725;-88
2024/03/02 21:45:25;;;;;;;36.43;23.07;;;7.80;99.90;;;;;;4475511;31;20663;-86
2024/03/02 23:06:37;;;;;;;33.77;22.80;;;7.80;99.90;;;;;;4660578;29;21135;-88
2024/03/02 23:32:22;;;;;;;36.07;22.03;;;7.90;99.90;;;;;;4722392;29;20202;-88
2024/03/02 23:52:31;;;;;;;37.10;22.60;;;7.90;99.90;;;;;;4577677;30;20284;-87
